Del Norte — WDC2280 — position and weather

sailwx.info

Track history (hours):
 
Tides and Currents Weather Stations Pressure Air Temp Water Temp Dewpoint Dewpoint Depression Visibility Wind Speed Wind Dir Waves Ship Positions

Del Norte

Owner: Golden Gate Bridge,Hwy & Transportation District, Larkspur, CA. More information available from US FCC via Universal Licensing System and Coast Guard Vessel Documentation Center.

Last reported at 2018-Jun-21 02:31 UTC. Time now 2018-Jun-21 02:39 UTC.
Position N 37°52' W 122°27'.

Length 48 m.

Type: High speed craft. MMSI: 366990520.

Date/timePositionNaut miles runAvg speedWind from/ knotsBaromVisibWave heightAir tempDewpointWater temp
2018-Jun-21 02:31N 37°52' W 122°27'5 9.8
2018-Jun-21 02:00N 37°49' W 122°23'3 6.6
2018-Jun-21 01:30N 37°51' W 122°26'0 0.6
2018-Jun-21 01:00N 37°51' W 122°26'4 7.5
2018-Jun-21 00:30N 37°48' W 122°23'611.0
2018-Jun-21 00:00N 37°52' W 122°27'510.3
2018-Jun-20 23:30N 37°48' W 122°23'1 1.5
2018-Jun-20 23:00N 37°48' W 122°23'1019.8
2018-Jun-20 22:30N 37°56' W 122°30'1 1.7
2018-Jun-20 22:00N 37°57' W 122°31'1 0.0
2018-Jun-20 03:54N 37°56' W 122°30'411.2
2018-Jun-20 03:30N 37°52' W 122°27'511.0
2018-Jun-20 03:00N 37°48' W 122°24'511.0
2018-Jun-20 02:31N 37°52' W 122°27'5 9.4
2018-Jun-20 02:01N 37°49' W 122°23'3 6.4
2018-Jun-20 01:31N 37°51' W 122°26'0 0.5
2018-Jun-20 01:01N 37°51' W 122°26'4 7.4
2018-Jun-20 00:30N 37°48' W 122°23'511.0
2018-Jun-20 00:00N 37°52' W 122°27'510.7
2018-Jun-19 23:31N 37°48' W 122°23'0 1.0
2018-Jun-19 23:00N 37°48' W 122°23'1019.4
2018-Jun-19 22:30N 37°56' W 122°29'1 2.7
2018-Jun-19 22:00N 37°57' W 122°31'0 0.0
2018-Jun-19 03:57N 37°57' W 122°30'510.8
2018-Jun-19 03:30N 37°52' W 122°27'511.1
2018-Jun-19 03:00N 37°48' W 122°24'510.9
2018-Jun-19 02:30N 37°52' W 122°27'510.7
2018-Jun-19 02:01N 37°48' W 122°23'4 7.1
2018-Jun-19 01:31N 37°51' W 122°26'0 0.4
2018-Jun-19 01:01N 37°51' W 122°26'3 7.0
2018-Jun-19 00:31N 37°48' W 122°23'510.3
2018-Jun-18 23:59N 37°52' W 122°27'510.8
2018-Jun-18 23:30N 37°48' W 122°23'0 1.0
2018-Jun-18 23:00N 37°48' W 122°23'1018.9
2018-Jun-18 22:30N 37°56' W 122°29'1 2.3
2018-Jun-18 22:00N 37°57' W 122°31'  
2018-Jun-15 17:45N 37°57' W 122°31'0 0.3
2018-Jun-15 17:31N 37°57' W 122°30'0 0.0
2018-Jun-15 17:00N 37°57' W 122°30'2 4.6
2018-Jun-15 16:31N 37°56' W 122°28'917.1
2018-Jun-15 16:00N 37°48' W 122°24'1019.4
2018-Jun-15 15:30N 37°56' W 122°30'0 0.8
2018-Jun-15 15:00N 37°56' W 122°29'919.2
2018-Jun-15 14:30N 37°48' W 122°23'1020.7
2018-Jun-15 14:00N 37°57' W 122°30'917.3
2018-Jun-15 13:31N 37°50' W 122°24'611.9
2018-Jun-15 13:00N 37°55' W 122°28'3 5.6
2018-Jun-15 12:30N 37°57' W 122°31'  
2018-Jun-13 04:07N 37°57' W 122°31'0 0.1
2018-Jun-13 04:00N 37°57' W 122°31'510.1
2018-Jun-13 03:30N 37°52' W 122°27'511.0
2018-Jun-13 03:00N 37°48' W 122°24'510.9
2018-Jun-13 02:30N 37°52' W 122°27'510.3
2018-Jun-13 02:01N 37°48' W 122°23'4 7.3
2018-Jun-13 01:31N 37°51' W 122°26'0 0.9
2018-Jun-13 01:00N 37°51' W 122°27'4 8.5
2018-Jun-13 00:30N 37°48' W 122°23'511.0
2018-Jun-13 00:00N 37°52' W 122°27'511.2
2018-Jun-12 23:31N 37°48' W 122°23'0 0.5
2018-Jun-12 23:00N 37°48' W 122°23'510.7
2018-Jun-12 22:30N 37°53' W 122°26'510.9
2018-Jun-12 22:01N 37°57' W 122°30'0 0.5
2018-Jun-12 21:30N 37°57' W 122°31'0 0.0
2018-Jun-12 21:00N 37°57' W 122°31'0 0.0
2018-Jun-12 20:30N 37°57' W 122°31'0 0.0
2018-Jun-12 20:00N 37°57' W 122°31'0 0.0
2018-Jun-12 19:30N 37°57' W 122°31'0 0.0
2018-Jun-12 19:00N 37°57' W 122°31'0 0.0
2018-Jun-12 17:32N 37°57' W 122°31'0 0.3
2018-Jun-12 17:30N 37°57' W 122°31'2 3.3
2018-Jun-12 17:01N 37°56' W 122°29'917.7
2018-Jun-12 16:31N 37°48' W 122°23'510.5
2018-Jun-12 16:01N 37°52' W 122°27'510.9
2018-Jun-12 15:30N 37°48' W 122°24'510.9
2018-Jun-12 15:00N 37°52' W 122°27'3 5.6
2018-Jun-12 14:31N 37°50' W 122°25'1 1.9
2018-Jun-12 14:00N 37°50' W 122°24'4 7.4
2018-Jun-12 13:30N 37°52' W 122°27'511.0
2018-Jun-12 13:00N 37°48' W 122°24'511.0
2018-Jun-12 12:30N 37°52' W 122°27'4 8.7
2018-Jun-12 11:59N 37°56' W 122°30'  
Track history (hours):
 
Tides and Currents Weather Stations Pressure Air Temp Water Temp Dewpoint Dewpoint Depression Visibility Wind Speed Wind Dir Waves Ship Positions

Del Norte

Owner: Golden Gate Bridge,Hwy & Transportation District, Larkspur, CA. More information available from US FCC via Universal Licensing System and Coast Guard Vessel Documentation Center.

Last reported at 2018-Jun-21 02:31 UTC. Time now 2018-Jun-21 02:39 UTC.
Position N 37°52' W 122°27'.

Length 48 m.

Type: High speed craft. MMSI: 366990520.

Date/timePositionNaut miles runAvg speedWind from/ knotsBaromVisibWave heightAir tempDewpointWater temp
2018-Jun-21 02:31N 37°52' W 122°27'5 9.8
2018-Jun-21 02:00N 37°49' W 122°23'3 6.6
2018-Jun-21 01:30N 37°51' W 122°26'0 0.6
2018-Jun-21 01:00N 37°51' W 122°26'4 7.5
2018-Jun-21 00:30N 37°48' W 122°23'611.0
2018-Jun-21 00:00N 37°52' W 122°27'510.3
2018-Jun-20 23:30N 37°48' W 122°23'1 1.5
2018-Jun-20 23:00N 37°48' W 122°23'1019.8
2018-Jun-20 22:30N 37°56' W 122°30'1 1.7
2018-Jun-20 22:00N 37°57' W 122°31'1 0.0
2018-Jun-20 03:54N 37°56' W 122°30'411.2
2018-Jun-20 03:30N 37°52' W 122°27'511.0
2018-Jun-20 03:00N 37°48' W 122°24'511.0
2018-Jun-20 02:31N 37°52' W 122°27'5 9.4
2018-Jun-20 02:01N 37°49' W 122°23'3 6.4
2018-Jun-20 01:31N 37°51' W 122°26'0 0.5
2018-Jun-20 01:01N 37°51' W 122°26'4 7.4
2018-Jun-20 00:30N 37°48' W 122°23'511.0
2018-Jun-20 00:00N 37°52' W 122°27'510.7
2018-Jun-19 23:31N 37°48' W 122°23'0 1.0
2018-Jun-19 23:00N 37°48' W 122°23'1019.4
2018-Jun-19 22:30N 37°56' W 122°29'1 2.7
2018-Jun-19 22:00N 37°57' W 122°31'0 0.0
2018-Jun-19 03:57N 37°57' W 122°30'510.8
2018-Jun-19 03:30N 37°52' W 122°27'511.1
2018-Jun-19 03:00N 37°48' W 122°24'510.9
2018-Jun-19 02:30N 37°52' W 122°27'510.7
2018-Jun-19 02:01N 37°48' W 122°23'4 7.1
2018-Jun-19 01:31N 37°51' W 122°26'0 0.4
2018-Jun-19 01:01N 37°51' W 122°26'3 7.0
2018-Jun-19 00:31N 37°48' W 122°23'510.3
2018-Jun-18 23:59N 37°52' W 122°27'510.8
2018-Jun-18 23:30N 37°48' W 122°23'0 1.0
2018-Jun-18 23:00N 37°48' W 122°23'1018.9
2018-Jun-18 22:30N 37°56' W 122°29'1 2.3
2018-Jun-18 22:00N 37°57' W 122°31'  
2018-Jun-15 17:45N 37°57' W 122°31'0 0.3
2018-Jun-15 17:31N 37°57' W 122°30'0 0.0
2018-Jun-15 17:00N 37°57' W 122°30'2 4.6
2018-Jun-15 16:31N 37°56' W 122°28'917.1
2018-Jun-15 16:00N 37°48' W 122°24'1019.4
2018-Jun-15 15:30N 37°56' W 122°30'0 0.8
2018-Jun-15 15:00N 37°56' W 122°29'919.2
2018-Jun-15 14:30N 37°48' W 122°23'1020.7
2018-Jun-15 14:00N 37°57' W 122°30'917.3
2018-Jun-15 13:31N 37°50' W 122°24'611.9
2018-Jun-15 13:00N 37°55' W 122°28'3 5.6
2018-Jun-15 12:30N 37°57' W 122°31'  
2018-Jun-13 04:07N 37°57' W 122°31'0 0.1
2018-Jun-13 04:00N 37°57' W 122°31'510.1
2018-Jun-13 03:30N 37°52' W 122°27'511.0
2018-Jun-13 03:00N 37°48' W 122°24'510.9
2018-Jun-13 02:30N 37°52' W 122°27'510.3
2018-Jun-13 02:01N 37°48' W 122°23'4 7.3
2018-Jun-13 01:31N 37°51' W 122°26'0 0.9
2018-Jun-13 01:00N 37°51' W 122°27'4 8.5
2018-Jun-13 00:30N 37°48' W 122°23'511.0
2018-Jun-13 00:00N 37°52' W 122°27'511.2
2018-Jun-12 23:31N 37°48' W 122°23'0 0.5
2018-Jun-12 23:00N 37°48' W 122°23'510.7
2018-Jun-12 22:30N 37°53' W 122°26'510.9
2018-Jun-12 22:01N 37°57' W 122°30'0 0.5
2018-Jun-12 21:30N 37°57' W 122°31'0 0.0
2018-Jun-12 21:00N 37°57' W 122°31'0 0.0
2018-Jun-12 20:30N 37°57' W 122°31'0 0.0
2018-Jun-12 20:00N 37°57' W 122°31'0 0.0
2018-Jun-12 19:30N 37°57' W 122°31'0 0.0
2018-Jun-12 19:00N 37°57' W 122°31'0 0.0
2018-Jun-12 17:32N 37°57' W 122°31'0 0.3
2018-Jun-12 17:30N 37°57' W 122°31'2 3.3
2018-Jun-12 17:01N 37°56' W 122°29'917.7
2018-Jun-12 16:31N 37°48' W 122°23'510.5
2018-Jun-12 16:01N 37°52' W 122°27'510.9
2018-Jun-12 15:30N 37°48' W 122°24'510.9
2018-Jun-12 15:00N 37°52' W 122°27'3 5.6
2018-Jun-12 14:31N 37°50' W 122°25'1 1.9
2018-Jun-12 14:00N 37°50' W 122°24'4 7.4
2018-Jun-12 13:30N 37°52' W 122°27'511.0
2018-Jun-12 13:00N 37°48' W 122°24'511.0
2018-Jun-12 12:30N 37°52' W 122°27'4 8.7
2018-Jun-12 11:59N 37°56' W 122°30'  

Dump ship's entire track history